• Join FlightAware (Why Join?)
  • Login
  • US Flag 
08:47PM EST


 

Airport Tracker/Info


-or-


 

Live Flight TrackerFlight Track Log ✈ SCX8700 ✈ 06-Mar-2014 ✈ KMSP - KPIA

Flight Track Log - Related Links

Times and Time Zones

All times are in EST time to prevent confusion due to time zone crossing. See the SCX8700 flight status page for this flight to view local times or setup timezone preferences in your user account.

Time Position Orientation Groundspeed Altitude Reporting Facility
EST Latitude Longitude Course Direction KTS MPH feet Rate Location/Type
07:32PM 44.8500 -93.2167 110° East 147 169 2,500  Level Minneapolis TRACON
07:34PM 44.8197 -93.1000 110° East 268 308 6,500 3,060 Climbing Minneapolis Center
07:35PM 44.7614 -93.0183 135° Southeast 292 336 10,400 3,480 Climbing Minneapolis Center
07:36PM 44.6947 -92.9258 135° Southeast 339 390 13,800 3,120 Climbing Minneapolis Center
07:37PM 44.6222 -92.8275 136° Southeast 361 415 17,000 2,580 Climbing Minneapolis Center
07:43PM 44.1407 -91.9849 121° Southeast 481 554 32,500 2,340 Climbing FlightAware ADS-B (LPVM)
07:44PM 44.0658 -91.8141 121° Southeast 492 566 34,300 1,080 Climbing FlightAware ADS-B (LPVM)
07:45PM 43.9893 -91.6406 122° Southeast 508 585 34,900 360 Climbing FlightAware ADS-B (LPVM)
07:46PM 43.9430 -91.5363 122° Southeast 505 581 35,000 60 Climbing FlightAware ADS-B (LPVM)
07:46PM 43.8799 -91.4218 132° Southeast 506 582 35,000  Level FlightAware ADS-B (LPVM)
07:47PM 43.8282 -91.3490 135° Southeast 505 581 35,000  Level FlightAware ADS-B (LPVM)
07:48PM 43.7748 -91.2742 135° Southeast 504 580 35,000  Level FlightAware ADS-B (LPVM)
07:48PM 43.7064 -91.1785 135° Southeast 504 580 35,000  Level FlightAware ADS-B (LPVM)
07:50PM 43.5531 -90.9654 135° Southeast 501 577 35,000  Level FlightAware ADS-B (LPVM)
07:51PM 43.4317 -90.8533 162° South 498 573 35,000  Level FlightAware ADS-B (LPVM)
07:52PM 43.3399 -90.8131 162° South 498 573 35,000 -60 Level FlightAware ADS-B (LPVM)
07:53PM 43.1396 -90.7258 162° South 498 573 34,900 -300 Descending FlightAware ADS-B (LPVM)
07:54PM 43.0678 -90.6946 162° South 502 578 34,400 -900 Descending FlightAware ADS-B (KMDW)
07:54PM 43.0315 -90.6789 162° South 504 580 34,200 -1,020 Descending FlightAware ADS-B (KMDW)
07:55PM 43.0315 -90.6789 163° South 498 573 33,500 -1,020 Descending FlightAware ADS-B (KMDW)
07:55PM 43.0040 -90.6672 162° South 497 572 33,000 -1,020 Descending FlightAware ADS-B
07:57PM 42.6843 -90.5298 163° South 475 547 31,500 -1,080 Descending FlightAware ADS-B (KMDW)
07:57PM 42.6072 -90.4969 163° South 470 541 30,900 -960 Descending FlightAware ADS-B
07:58PM 42.5372 -90.4670 163° South 469 540 30,400 -1,020 Descending FlightAware ADS-B (KMDW)
07:58PM 42.4471 -90.4286 163° South 462 532 29,600 -1,080 Descending FlightAware ADS-B
07:59PM 42.3450 -90.3853 163° South 461 531 28,800 -960 Descending FlightAware ADS-B (KMDW)
08:00PM 42.2227 -90.3337 163° South 453 521 27,800 -1,080 Descending FlightAware ADS-B (KMDW)
08:01PM 42.1122 -90.2871 163° South 441 507 26,700 -1,560 Descending FlightAware ADS-B (KMDW)
08:02PM 42.0290 -90.2525 163° South 431 496 25,300 -2,100 Descending FlightAware ADS-B (KMDW)
08:04PM 41.7809 -90.1485 163° South 426 490 20,600 -1,980 Descending FlightAware ADS-B
08:06PM 41.6411 -90.0933 163° South 416 479 18,300 -1,860 Descending Chicago Center
08:07PM 41.5364 -90.0494 163° South 407 468 16,300 -2,100 Descending Chicago Center
08:08PM 41.4353 -90.0069 163° South 393 452 14,000 -2,100 Descending Chicago Center
08:09PM 41.3397 -89.9678 163° South 369 425 12,000 -1,500 Descending Chicago Center
08:10PM 41.2508 -89.9292 162° South 345 397 11,000 -1,020 Descending Chicago Center
08:11PM 41.1717 -89.9128 171° South 301 346 9,900 -1,500 Descending Chicago Center
08:12PM 41.0764 -89.8950 172° South 288 331 8,000 -1,500 Descending Chicago Center
08:13PM 40.9994 -89.8817 173° South 282 325 6,800 -1,380 Descending Chicago Center
08:14PM 40.9306 -89.8678 171° South 260 299 5,200 -1,320 Descending Chicago Center
08:15PM 40.8619 -89.8542 171° South 251 289 4,100 -1,140 Descending Chicago Center
08:16PM 40.8017 -89.8431 172° South 236 272 2,900 -840 Descending Chicago Center
08:17PM 40.7514 -89.8244 164° South 208 239 2,400 -420 Descending Chicago Center
08:18PM 40.7147 -89.7878 143° Southeast 177 204 2,100 -540 Descending Chicago Center
08:19PM 40.6900 -89.7431 126° Southeast 159 183 1,300 -780 Descending Chicago Center
08:20PM 40.6689 -89.7044 126° Southeast 144 166 600 -720 Descending Chicago Center
08:22PM 40.6642 -89.6933 169° South  Level Estimated